Time;durP1;ratioP1;P1;durP2;ratioP2;P2;SDS_P1;SDS_P2;PMS_P1;PMS_P2;Temp;Humidity;BMP_temperature;BMP_pressure;BME280_temperature;BME280_humidity;BME280_pressure;Samples;Min_cycle;Max_cycle;Signal;HPM_P1;HPM_P2
2023/04/01 00:02:21;;;;;;;11.25;3.38;;;9.90;99.90;;;;;;20722657;28;20038;-40
2023/04/01 00:12:24;;;;;;;10.52;3.55;;;9.80;99.90;;;;;;20725209;28;20038;-40
2023/04/01 00:22:26;;;;;;;18.15;5.50;;;9.80;99.90;;;;;;20729880;28;20049;-40
2023/04/01 00:32:27;;;;;;;9.95;4.50;;;9.80;99.90;;;;;;20734949;28;20034;-40
2023/04/01 00:42:28;;;;;;;9.65;5.40;;;9.70;99.90;;;;;;20722330;28;20045;-40
2023/04/01 00:52:29;;;;;;;7.53;4.57;;;9.80;99.90;;;;;;20728573;28;20493;-40
2023/04/01 01:02:31;;;;;;;7.40;3.85;;;9.80;99.90;;;;;;20737870;28;20421;-40
2023/04/01 01:12:57;;;;;;;7.47;3.13;;;9.70;99.90;;;;;;20718756;28;20575;-40
2023/04/01 01:23:01;;;;;;;7.00;2.85;;;9.50;99.90;;;;;;20725192;28;20056;-40
2023/04/01 01:33:32;;;;;;;7.80;2.10;;;9.40;99.90;;;;;;20719885;28;20516;-40
2023/04/01 01:43:39;;;;;;;5.65;2.13;;;9.40;99.90;;;;;;20726265;28;20475;-41
2023/04/01 01:53:40;;;;;;;7.97;2.47;;;9.30;99.90;;;;;;20734533;28;20039;-41
2023/04/01 02:03:43;;;;;;;6.72;2.13;;;9.30;99.90;;;;;;20737324;28;20432;-41
2023/04/01 02:13:52;;;;;;;8.93;4.05;;;9.30;99.90;;;;;;20724371;28;20045;-41
2023/04/01 02:23:55;;;;;;;8.80;2.70;;;9.40;99.90;;;;;;20716603;28;20030;-41
2023/04/01 02:33:57;;;;;;;5.38;2.40;;;9.40;99.90;;;;;;20727870;28;20586;-40
2023/04/01 02:43:59;;;;;;;5.28;3.05;;;9.40;99.90;;;;;;20722635;28;20231;-41
2023/04/01 02:54:00;;;;;;;2.85;1.55;;;9.40;99.90;;;;;;20718793;28;20095;-41
2023/04/01 03:04:01;;;;;;;7.53;2.20;;;9.40;99.90;;;;;;20719606;28;20052;-41
2023/04/01 03:14:02;;;;;;;9.38;4.13;;;9.40;99.90;;;;;;20712831;28;20720;-40
2023/04/01 03:24:03;;;;;;;3.53;1.58;;;9.50;99.90;;;;;;20723432;28;20049;-40
2023/04/01 03:34:04;;;;;;;3.88;1.65;;;9.50;99.90;;;;;;20716630;28;20049;-40
2023/04/01 03:44:06;;;;;;;4.78;2.40;;;9.60;99.90;;;;;;20715955;28;20049;-40
2023/04/01 03:54:08;;;;;;;8.68;4.20;;;9.70;99.90;;;;;;20716483;28;20060;-41
2023/04/01 04:04:12;;;;;;;7.22;3.33;;;9.80;99.90;;;;;;20720112;28;20045;-41
2023/04/01 04:14:13;;;;;;;6.88;3.42;;;9.80;99.90;;;;;;20725780;28;20044;-41
2023/04/01 04:24:14;;;;;;;3.65;2.35;;;9.80;99.90;;;;;;20726999;28;20044;-41
2023/04/01 04:34:15;;;;;;;5.18;2.83;;;9.80;99.90;;;;;;20728045;28;20072;-40
2023/04/01 04:44:17;;;;;;;5.07;2.92;;;9.80;99.90;;;;;;20729658;28;20050;-40
2023/04/01 04:54:18;;;;;;;7.55;3.55;;;9.80;99.90;;;;;;20790441;28;20042;-41
2023/04/01 05:04:19;;;;;;;5.10;4.13;;;9.80;99.90;;;;;;20727937;28;20045;-41
2023/04/01 05:14:20;;;;;;;6.05;3.08;;;9.80;99.90;;;;;;20727862;28;20045;-41
2023/04/01 05:24:21;;;;;;;7.72;2.95;;;9.90;99.90;;;;;;20719324;28;20034;-40
2023/04/01 05:34:22;;;;;;;5.43;3.15;;;9.90;99.90;;;;;;20727425;28;20044;-41
2023/04/01 05:44:23;;;;;;;7.55;4.03;;;9.90;99.90;;;;;;20715729;28;21043;-41
2023/04/01 05:54:24;;;;;;;6.53;3.72;;;9.90;99.90;;;;;;20701988;28;20377;-41
2023/04/01 06:04:32;;;;;;;5.25;2.70;;;9.80;99.90;;;;;;20724865;28;20034;-40
2023/04/01 06:15:11;;;;;;;6.18;3.20;;;9.90;99.90;;;;;;20722233;28;20045;-40
2023/04/01 06:25:19;;;;;;;10.90;2.78;;;9.90;99.90;;;;;;20723239;28;20030;-41
2023/04/01 06:35:27;;;;;;;10.90;4.20;;;9.90;99.90;;;;;;20694662;28;20512;-40
2023/04/01 06:45:52;;;;;;;11.15;5.63;;;10.00;99.90;;;;;;20701308;28;20029;-40
2023/04/01 06:56:01;;;;;;;9.25;4.75;;;10.00;99.90;;;;;;20696399;28;20053;-41
2023/04/01 07:06:05;;;;;;;8.85;4.95;;;10.00;99.90;;;;;;20708400;28;20503;-41
2023/04/01 07:16:06;;;;;;;8.10;3.75;;;10.10;99.90;;;;;;20703172;28;20041;-41
2023/04/01 07:26:24;;;;;;;5.75;3.25;;;10.10;99.90;;;;;;20709656;28;20034;-41
2023/04/01 07:36:28;;;;;;;5.97;3.03;;;10.00;99.90;;;;;;20652094;28;20049;-41
2023/04/01 07:46:38;;;;;;;10.18;4.25;;;10.00;99.90;;;;;;20760361;28;20040;-41
2023/04/01 07:57:09;;;;;;;10.77;4.13;;;10.00;99.90;;;;;;20789491;28;20052;-41
2023/04/01 08:07:16;;;;;;;6.72;4.22;;;10.10;99.90;;;;;;20774881;28;20172;-41
2023/04/01 08:17:46;;;;;;;7.38;3.58;;;10.20;99.90;;;;;;20780424;28;20041;-41
2023/04/01 08:27:54;;;;;;;10.00;4.65;;;10.10;99.90;;;;;;20745380;28;20041;-39
2023/04/01 08:38:00;;;;;;;8.93;5.20;;;10.20;99.90;;;;;;20710914;28;20057;-38
2023/04/01 08:48:26;;;;;;;14.07;4.72;;;10.30;99.90;;;;;;20697280;28;21916;-39
2023/04/01 08:58:49;;;;;;;8.35;4.15;;;10.40;99.90;;;;;;20705553;28;20046;-39
2023/04/01 09:09:09;;;;;;;6.88;4.03;;;10.50;99.90;;;;;;20713479;28;20045;-39
2023/04/01 09:19:37;;;;;;;9.18;4.90;;;10.70;99.90;;;;;;20783910;28;20330;-39
2023/04/01 09:29:41;;;;;;;6.20;3.42;;;10.70;99.90;;;;;;20734146;28;20697;-39
2023/04/01 09:40:04;;;;;;;4.20;3.03;;;10.80;99.90;;;;;;20722090;28;20038;-41
2023/04/01 09:50:31;;;;;;;5.15;2.97;;;11.00;99.90;;;;;;20729875;28;20049;-39
2023/04/01 10:01:00;;;;;;;8.05;3.00;;;11.20;99.90;;;;;;20709921;28;20486;-39
2023/04/01 10:11:15;;;;;;;4.38;2.55;;;11.20;99.90;;;;;;20729428;28;20338;-40
2023/04/01 10:21:35;;;;;;;4.65;2.33;;;11.40;99.90;;;;;;20752222;28;20716;-40
2023/04/01 10:32:07;;;;;;;4.28;2.60;;;11.50;99.90;;;;;;20712822;28;20037;-40
2023/04/01 10:42:26;;;;;;;4.07;2.45;;;11.60;99.90;;;;;;20806643;28;20615;-40
2023/04/01 10:52:46;;;;;;;3.50;1.67;;;11.50;99.90;;;;;;20722880;28;21565;-41
2023/04/01 11:03:02;;;;;;;2.60;1.60;;;11.20;99.90;;;;;;20677787;28;20041;-39
2023/04/01 11:13:09;;;;;;;6.97;2.17;;;11.20;99.90;;;;;;20791663;28;20056;-41
2023/04/01 11:23:41;;;;;;;3.30;1.70;;;11.40;99.90;;;;;;20777349;28;20040;-41
2023/04/01 11:34:04;;;;;;;2.90;1.60;;;11.90;99.90;;;;;;20710286;28;20536;-41
2023/04/01 11:44:26;;;;;;;3.03;1.67;;;11.90;99.90;;;;;;20728505;28;21068;-41
2023/04/01 11:54:43;;;;;;;2.90;1.20;;;11.60;99.90;;;;;;20733416;28;20042;-40
2023/04/01 12:04:48;;;;;;;13.20;3.45;;;11.20;99.90;;;;;;20736022;28;20350;-40
2023/04/01 12:15:26;;;;;;;5.40;2.63;;;11.10;99.90;;;;;;20736803;28;20512;-40
2023/04/01 12:25:38;;;;;;;4.13;2.22;;;11.30;99.90;;;;;;20732823;28;20053;-41
2023/04/01 12:35:48;;;;;;;2.75;1.45;;;11.30;99.90;;;;;;20738112;28;20041;-42
2023/04/01 12:45:55;;;;;;;5.07;2.75;;;11.30;99.90;;;;;;20746528;28;20053;-42
2023/04/01 12:55:57;;;;;;;4.37;2.20;;;11.30;99.90;;;;;;20737229;28;20045;-42
2023/04/01 13:06:12;;;;;;;3.92;1.77;;;11.20;99.90;;;;;;20741779;28;20038;-42
2023/04/01 13:16:25;;;;;;;3.45;2.20;;;11.50;99.90;;;;;;20738277;28;21182;-40
2023/04/01 13:26:47;;;;;;;4.35;2.38;;;11.60;99.90;;;;;;20737877;28;20038;-41
2023/04/01 13:36:55;;;;;;;2.90;1.42;;;11.80;99.90;;;;;;20730267;28;20050;-41
2023/04/01 13:47:05;;;;;;;4.65;1.40;;;11.60;99.90;;;;;;20720706;28;20041;-40
2023/04/01 13:57:29;;;;;;;3.50;1.80;;;11.40;99.90;;;;;;20713334;28;20088;-40
2023/04/01 14:07:52;;;;;;;2.85;1.60;;;11.20;99.90;;;;;;20718363;28;20038;-40
2023/04/01 14:18:10;;;;;;;3.80;1.67;;;11.10;99.90;;;;;;20725828;28;20046;-40
2023/04/01 14:28:18;;;;;;;4.40;2.85;;;11.00;99.90;;;;;;20744027;28;20034;-40
2023/04/01 14:38:44;;;;;;;5.70;2.15;;;10.80;99.90;;;;;;20716543;28;20436;-41
2023/04/01 14:48:57;;;;;;;5.68;2.28;;;10.80;99.90;;;;;;20740262;28;20044;-40
2023/04/01 14:58:59;;;;;;;6.40;2.10;;;10.70;99.90;;;;;;20720241;28;20042;-40
2023/04/01 15:09:12;;;;;;;4.53;1.92;;;10.70;99.90;;;;;;20719364;28;20517;-40
2023/04/01 15:19:31;;;;;;;4.25;2.17;;;10.60;99.90;;;;;;20752710;28;20554;-41
2023/04/01 15:29:45;;;;;;;3.42;1.75;;;10.60;99.90;;;;;;20734099;28;20046;-40
2023/04/01 15:40:04;;;;;;;3.67;2.40;;;10.60;99.90;;;;;;20729911;28;20046;-40
2023/04/01 15:50:21;;;;;;;3.97;1.52;;;10.50;99.90;;;;;;20738318;28;20406;-41
2023/04/01 16:00:52;;;;;;;3.03;1.67;;;10.40;99.90;;;;;;20789463;28;22026;-41
2023/04/01 16:11:22;;;;;;;3.30;2.13;;;10.40;99.90;;;;;;20814254;28;20038;-38
2023/04/01 16:21:23;;;;;;;5.53;2.60;;;10.30;99.90;;;;;;20753900;28;20470;-38
2023/04/01 16:31:49;;;;;;;4.07;1.90;;;10.30;99.90;;;;;;20751511;28;20065;-38
2023/04/01 16:42:35;;;;;;;2.72;1.38;;;10.30;99.90;;;;;;20742065;28;20046;-38
2023/04/01 16:52:59;;;;;;;2.10;1.15;;;10.30;99.90;;;;;;20727781;28;20072;-40
2023/04/01 17:03:17;;;;;;;1.50;0.80;;;10.30;99.90;;;;;;20750100;28;21555;-38
2023/04/01 17:13:38;;;;;;;1.33;0.88;;;10.20;99.90;;;;;;20736090;28;20038;-38
2023/04/01 17:23:54;;;;;;;3.03;0.95;;;10.20;99.90;;;;;;20737828;28;20038;-39
2023/04/01 17:34:49;;;;;;;2.22;1.13;;;10.00;99.90;;;;;;20751622;28;20052;-38
2023/04/01 17:45:05;;;;;;;1.63;0.70;;;9.90;99.90;;;;;;20594013;28;20318;-38
2023/04/01 17:55:45;;;;;;;1.53;0.77;;;9.80;99.90;;;;;;20733073;28;20049;-38
2023/04/01 18:05:45;;;;;;;;;;;9.70;99.90;;;;;;20748575;28;21686;-38
2023/04/01 18:16:14;;;;;;;2.80;0.85;;;9.70;99.90;;;;;;20807794;28;19925;-38
2023/04/01 18:26:31;;;;;;;;;;;9.60;99.90;;;;;;20757150;28;21403;-38
2023/04/01 18:36:53;;;;;;;2.80;1.35;;;9.50;99.90;;;;;;20740228;28;20388;-39
2023/04/01 18:47:24;;;;;;;0.88;0.43;;;9.50;99.90;;;;;;20724379;28;20057;-39
2023/04/01 18:57:38;;;;;;;1.77;1.00;;;9.50;99.90;;;;;;20820764;28;20397;-39
2023/04/01 19:07:51;;;;;;;1.50;0.75;;;9.40;99.90;;;;;;20807285;28;20042;-38
2023/04/01 19:18:11;;;;;;;1.75;1.27;;;9.20;99.90;;;;;;20727107;28;20045;-38
2023/04/01 19:28:32;;;;;;;2.92;1.70;;;9.30;99.90;;;;;;20739113;28;20623;-38
2023/04/01 19:38:48;;;;;;;2.85;1.70;;;9.20;99.90;;;;;;20726961;28;20970;-38
2023/04/01 19:49:08;;;;;;;4.57;1.50;;;9.10;99.90;;;;;;20755910;28;20030;-39
2023/04/01 19:59:27;;;;;;;4.53;2.05;;;9.00;99.90;;;;;;20766338;28;20049;-38
2023/04/01 20:09:29;;;;;;;4.10;1.52;;;8.80;99.90;;;;;;20766117;28;20124;-38
2023/04/01 20:19:43;;;;;;;2.95;1.70;;;8.90;99.90;;;;;;20836622;28;20037;-38
2023/04/01 20:30:17;;;;;;;4.40;2.42;;;8.70;99.90;;;;;;20770767;28;21007;-39
2023/04/01 20:40:52;;;;;;;3.35;1.38;;;8.60;99.90;;;;;;20735648;28;20372;-38
2023/04/01 20:51:05;;;;;;;4.30;2.03;;;8.60;99.90;;;;;;20746747;28;20432;-38
2023/04/01 21:01:13;;;;;;;5.38;2.42;;;8.60;99.90;;;;;;20741316;28;20046;-39
2023/04/01 21:11:26;;;;;;;3.67;1.75;;;8.40;99.90;;;;;;20746937;28;20040;-39
2023/04/01 21:21:45;;;;;;;3.42;1.65;;;8.40;99.90;;;;;;20753086;28;21336;-39
2023/04/01 21:32:05;;;;;;;3.53;1.95;;;8.30;94.10;;;;;;20721606;28;20033;-39
2023/04/01 21:42:12;;;;;;;2.90;2.10;;;8.20;91.10;;;;;;20718932;28;20589;-39
2023/04/01 21:52:22;;;;;;;5.87;3.03;;;8.10;90.70;;;;;;20730655;28;20041;-39
2023/04/01 22:02:41;;;;;;;3.25;1.65;;;8.00;86.60;;;;;;20715087;28;20057;-39
2023/04/01 22:13:07;;;;;;;4.82;2.35;;;7.90;81.40;;;;;;20723512;28;20029;-39
2023/04/01 22:23:23;;;;;;;3.22;1.70;;;7.90;87.40;;;;;;20716358;28;20035;-39
2023/04/01 22:33:53;;;;;;;5.22;2.30;;;7.90;88.10;;;;;;20742285;28;20045;-39
2023/04/01 22:43:57;;;;;;;6.75;3.60;;;7.70;93.10;;;;;;20718753;28;20054;-39
2023/04/01 22:54:19;;;;;;;5.78;2.67;;;7.60;94.50;;;;;;20736491;28;20336;-39
2023/04/01 23:04:25;;;;;;;4.60;2.40;;;7.60;98.00;;;;;;20735209;28;21647;-39
2023/04/01 23:14:36;;;;;;;5.13;2.97;;;7.60;97.10;;;;;;20723219;28;20042;-39
2023/04/01 23:24:53;;;;;;;4.95;2.47;;;7.50;94.80;;;;;;20757824;28;20048;-39
2023/04/01 23:34:57;;;;;;;6.18;3.08;;;7.50;91.20;;;;;;20786162;28;20045;-39
2023/04/01 23:45:16;;;;;;;6.40;2.75;;;7.50;78.10;;;;;;20734673;28;20052;-39
2023/04/01 23:55:19;;;;;;;6.07;2.80;;;7.40;78.10;;;;;;20717717;28;20041;-39
